Skip Navigation LinksHome page > Weather > Current weather Skip Navigation Links

Current Weather

San Antonio Intl, San Antonio, Tex.

For information only: do not use for flight planning or navigation.
Latest weather
Observation time Monday, November 29, 2021 2:51 PM CST
Local time Monday, November 29, 2021 3:49 PM CST
Flight conditions Visual Meteorological Conditions
Winds
Wind direction South-Southwest (200°)
Wind speed 9 mph
Visibility 10 mi.
Sky condition
Ceiling unlimited
Cloud layer few clouds 25,000 ft.
Temperature 70°F
Dewpoint 43°F
Altimeter 30.15 in.Hg
Pressure change last 3 hours0.09 in.Hg
Pressure falling more slowly
Derived measurements
Relative humidity 38%
Density altitude 1400 ft.
Sea-level pressure 30.12 in.Hg
Remarks
Automated weather observing station with precipitation discriminator.
METAR KSAT 292051Z 20008KT 10SM FEW250 21/06 A3015 RMK AO2 SLP199 T02110061 56030

Settings

Location code

InnerDrive.Weather 4.0.6770.0 Release CLR 4.0.30319.42000
Copyright ©2018 Inner Drive Technology. All rights reserved. Portions Copyright ©1986-2018 David Braverman.

Find weather

Site navigation


Skip Navigation Links

Place info

Page info

PayPal - The safer, easier way to pay online!

Return home.

Copyright ©2021 Inner Drive Technology. Purveyors of fine, hand-crafted computer software. Page printed 2021-11-29T21:49:44 UTC.